Winnebago Heights, Iowa
Current Conditions -  °F | °C
As of 6:53 AM on Saturday 25 Oct 2014 (Local Time) from KMCW Reporting Station
Clear Clear  
Wind Chill: 44°   Ceiling: Unl
Heat Index: 48°   Visibility: 10mi
Dew Point: 40°   Wind: 9mph
Humidity: 74%   Direction: 310°NW
Pressure: 30.04"   Gusts: NA
Location:  43.1451°N, 93.1385°W
Report Text: KMCW 251153Z AUTO 31008KT 10SM CLR 09/04 A3004 RMK AO2 SLP170 T00890044 10111 20067 53011
Loading
Personal Weather Stations






























Interactive Weather Map New forecast layout! Learn more

10-Day Weather Forecast

Advertisements
Track Severe Weather on mobile